Time;durP1;ratioP1;P1;durP2;ratioP2;P2;SDS_P1;SDS_P2;PMS_P1;PMS_P2;Temp;Humidity;BMP_temperature;BMP_pressure;BME280_temperature;BME280_humidity;BME280_pressure;Samples;Min_cycle;Max_cycle;Signal;HPM_P1;HPM_P2
2024/02/27 00:02:33;;;;;;;6.87;2.80;;;;;;;14.57;50.27;97733.56;6759450;29;20319;-79
2024/02/27 00:05:54;;;;;;;4.83;2.20;;;;;;;14.71;50.31;97742.09;6758918;29;20299;-79
2024/02/27 00:09:18;;;;;;;3.00;2.50;;;;;;;14.60;50.55;97760.19;6759490;29;20861;-79
2024/02/27 00:12:40;;;;;;;3.83;2.87;;;;;;;14.45;51.12;97764.63;6759459;29;20208;-79
2024/02/27 00:16:02;;;;;;;4.20;3.37;;;;;;;13.94;52.42;97717.13;6759334;29;20215;-79
2024/02/27 00:19:24;;;;;;;3.00;2.70;;;;;;;14.32;52.53;97771.25;6758878;29;20688;-79
2024/02/27 00:22:46;;;;;;;2.83;2.63;;;;;;;14.00;53.49;97758.63;6758674;29;20319;-79
2024/02/27 00:26:07;;;;;;;5.13;2.80;;;;;;;14.19;52.83;97773.53;6758923;29;20265;-79
2024/02/27 00:29:31;;;;;;;2.87;2.67;;;;;;;14.08;53.62;97782.56;6758442;29;20229;-78
2024/02/27 00:32:53;;;;;;;3.30;2.80;;;;;;;13.91;53.66;97788.06;6756167;29;20213;-79
2024/02/27 00:36:16;;;;;;;4.33;2.80;;;;;;;13.77;53.68;97764.28;6758338;29;20218;-79
2024/02/27 00:39:37;;;;;;;2.93;2.40;;;;;;;13.94;53.79;97794.88;6757831;29;20300;-79
2024/02/27 00:42:59;;;;;;;3.07;2.40;;;;;;;13.76;53.72;97779.69;6758635;29;20742;-79
2024/02/27 00:46:21;;;;;;;2.43;2.23;;;;;;;14.09;52.70;97803.22;6758455;29;20236;-79
2024/02/27 00:49:42;;;;;;;2.77;2.20;;;;;;;13.74;53.73;97810.84;6757557;29;20232;-79
2024/02/27 00:53:07;;;;;;;2.60;2.40;;;;;;;13.65;54.33;97791.50;6758253;29;20628;-78
2024/02/27 00:56:28;;;;;;;3.17;2.50;;;;;;;13.85;54.08;97818.84;6758259;29;20266;-79
2024/02/27 00:59:50;;;;;;;2.33;2.10;;;;;;;13.43;55.31;97808.72;6757131;29;20360;-79
2024/02/27 01:03:11;;;;;;;2.17;2.07;;;;;;;13.84;54.36;97832.66;6757351;29;20308;-79
2024/02/27 01:06:33;;;;;;;3.20;2.50;;;;;;;13.46;55.21;97833.41;6757680;29;20369;-79
2024/02/27 01:09:56;;;;;;;2.63;2.20;;;;;;;13.22;56.42;97833.84;6757157;29;20260;-78
2024/02/27 01:13:17;;;;;;;4.90;2.10;;;;;;;13.53;55.66;97834.09;6756946;29;20210;-78
2024/02/27 01:16:39;;;;;;;2.57;2.30;;;;;;;13.43;55.09;97793.31;6757312;29;20267;-79
2024/02/27 01:20:00;;;;;;;2.50;2.30;;;;;;;13.69;55.34;97837.84;6757059;29;20785;-79
2024/02/27 01:23:22;;;;;;;2.80;2.60;;;;;;;13.51;55.95;97848.94;6757306;29;20235;-79
2024/02/27 01:26:44;;;;;;;2.73;2.53;;;;;;;13.50;55.86;97836.44;6757022;29;20261;-79
2024/02/27 01:30:07;;;;;;;3.07;2.30;;;;;;;13.79;55.36;97827.97;6756675;29;20765;-79
2024/02/27 01:33:28;;;;;;;4.60;2.47;;;;;;;13.58;55.11;97798.13;6757442;29;20290;-78
2024/02/27 01:36:50;;;;;;;2.83;2.50;;;;;;;13.78;54.55;97836.34;6756736;29;20235;-79
2024/02/27 01:40:12;;;;;;;2.57;2.37;;;;;;;13.42;53.77;97820.63;6756832;29;20354;-79
2024/02/27 01:43:35;;;;;;;3.13;2.43;;;;;;;13.19;53.74;97826.19;6756663;29;20228;-78
2024/02/27 01:46:57;;;;;;;3.13;2.40;;;;;;;13.29;53.66;97834.50;6756672;29;20238;-79
2024/02/27 01:50:18;;;;;;;3.57;2.80;;;;;;;13.13;53.87;97836.13;6756178;29;20340;-79
2024/02/27 01:53:41;;;;;;;3.43;3.13;;;;;;;13.15;53.39;97825.06;6756531;29;20556;-78
2024/02/27 01:57:02;;;;;;;3.40;3.10;;;;;;;12.93;52.95;97802.47;6755659;29;20366;-79
2024/02/27 02:00:25;;;;;;;3.03;2.70;;;;;;;13.52;52.79;97810.78;6755854;29;20296;-78
2024/02/27 02:03:47;;;;;;;3.63;3.33;;;;;;;13.99;52.00;97816.63;6755838;29;20228;-79
2024/02/27 02:07:08;;;;;;;4.03;3.63;;;;;;;14.05;50.81;97819.13;6756182;29;20778;-79
2024/02/27 02:10:30;;;;;;;6.13;4.53;;;;;;;14.25;49.94;97811.31;6756074;29;20810;-79
2024/02/27 02:13:51;;;;;;;5.00;4.50;;;;;;;13.49;51.04;97796.91;6755953;29;20353;-79
2024/02/27 02:17:14;;;;;;;4.83;4.43;;;;;;;14.15;49.29;97816.56;6756336;29;20613;-79
2024/02/27 02:20:39;;;;;;;5.33;4.30;;;;;;;14.14;49.25;97816.81;6776566;29;20693;-79
2024/02/27 02:24:02;;;;;;;4.63;4.20;;;;;;;13.66;48.69;97819.38;6781181;29;20325;-79
2024/02/27 02:27:25;;;;;;;5.13;4.30;;;;;;;14.00;49.13;97831.81;6781923;29;20640;-79
2024/02/27 02:30:47;;;;;;;5.13;4.50;;;;;;;14.08;48.95;97837.59;6776208;29;20209;-79
2024/02/27 02:34:08;;;;;;;5.47;4.83;;;;;;;14.10;48.95;97831.94;6745847;29;20295;-79
2024/02/27 02:37:31;;;;;;;5.53;4.50;;;;;;;13.84;48.88;97840.78;6755101;29;20319;-78
2024/02/27 02:40:53;;;;;;;6.20;5.20;;;;;;;13.47;48.60;97845.09;6755421;29;20834;-78
2024/02/27 02:44:14;;;;;;;5.53;4.73;;;;;;;14.00;48.36;97845.34;6755651;29;20838;-79
2024/02/27 02:47:36;;;;;;;5.23;4.47;;;;;;;14.21;47.26;97856.25;6754726;29;20244;-79
2024/02/27 02:50:57;;;;;;;5.97;5.17;;;;;;;14.15;47.78;97856.41;6755040;29;20212;-78
2024/02/27 02:54:20;;;;;;;6.23;5.60;;;;;;;14.19;47.91;97866.53;6755772;29;20216;-79
2024/02/27 02:57:42;;;;;;;5.83;4.73;;;;;;;14.35;47.67;97879.22;6754905;29;20320;-79
2024/02/27 03:01:03;;;;;;;4.80;4.40;;;;;;;14.32;46.53;97874.28;6754466;29;20295;-78
2024/02/27 03:04:25;;;;;;;7.63;5.80;;;;;;;14.16;46.07;97885.16;6753942;29;20264;-79
2024/02/27 03:07:46;;;;;;;7.60;6.17;;;;;;;13.79;47.27;97882.16;6749814;29;20319;-79
2024/02/27 03:11:09;;;;;;;7.80;5.93;;;;;;;13.85;46.38;97886.59;6733850;29;20278;-79
2024/02/27 03:14:31;;;;;;;7.60;6.27;;;;;;;13.79;46.56;97893.00;6737276;29;20336;-79
2024/02/27 03:17:52;;;;;;;6.67;5.97;;;;;;;13.75;46.46;97891.03;6731585;29;20317;-80
2024/02/27 03:21:14;;;;;;;8.13;6.50;;;;;;;13.65;46.35;97866.50;6747267;29;20331;-79
2024/02/27 03:24:35;;;;;;;6.80;5.67;;;;;;;13.82;46.04;97883.56;6762168;29;20307;-79
2024/02/27 03:27:58;;;;;;;6.97;6.27;;;;;;;13.48;46.38;97890.88;6759609;29;20356;-80
2024/02/27 03:31:20;;;;;;;8.90;6.07;;;;;;;13.75;45.53;97886.44;6736667;29;20213;-79
2024/02/27 03:34:41;;;;;;;8.90;6.20;;;;;;;13.67;46.10;97896.84;6758817;29;20263;-79
2024/02/27 03:38:03;;;;;;;8.03;6.20;;;;;;;13.78;45.87;97885.13;6762284;29;20850;-79
2024/02/27 03:41:25;;;;;;;7.90;6.50;;;;;;;13.79;45.89;97881.34;6762000;29;20224;-79
2024/02/27 03:44:48;;;;;;;9.47;7.43;;;;;;;13.52;46.04;97905.56;6762264;29;20278;-79
2024/02/27 03:48:09;;;;;;;8.43;6.57;;;;;;;13.21;46.76;97911.50;6761025;29;20327;-79
2024/02/27 03:51:31;;;;;;;8.57;6.20;;;;;;;12.82;47.06;97912.38;6762011;29;20291;-79
2024/02/27 03:54:52;;;;;;;8.00;6.50;;;;;;;13.37;46.85;97924.25;6761903;29;20346;-79
2024/02/27 03:58:14;;;;;;;7.80;6.40;;;;;;;13.59;46.81;97914.34;6778000;29;20379;-79
2024/02/27 04:01:36;;;;;;;7.47;6.27;;;;;;;13.40;47.18;97931.06;6766322;29;20239;-79
2024/02/27 04:04:58;;;;;;;7.67;6.10;;;;;;;13.39;47.45;97934.84;6761104;29;20315;-79
2024/02/27 04:08:19;;;;;;;7.00;6.03;;;;;;;13.17;46.91;97896.81;6759443;29;20321;-79
2024/02/27 04:11:41;;;;;;;8.10;6.73;;;;;;;13.63;47.36;97936.34;6760529;29;20361;-79
2024/02/27 04:15:02;;;;;;;7.50;6.53;;;;;;;13.28;47.91;97935.72;6760604;29;20246;-79
2024/02/27 04:18:25;;;;;;;8.67;6.50;;;;;;;13.66;46.70;97933.97;6759709;29;20288;-79
2024/02/27 04:21:47;;;;;;;7.77;6.13;;;;;;;13.21;47.69;97935.06;6760506;29;20208;-79
2024/02/27 04:25:09;;;;;;;7.13;6.03;;;;;;;13.19;47.75;97948.00;6760141;29;20316;-79
2024/02/27 04:28:30;;;;;;;7.27;6.10;;;;;;;13.12;48.04;97952.75;6759325;29;20307;-79
2024/02/27 04:31:52;;;;;;;7.70;5.90;;;;;;;12.68;48.84;97910.19;6760505;29;20761;-79
2024/02/27 04:35:15;;;;;;;10.30;7.03;;;;;;;12.99;48.89;97951.13;6759485;29;20299;-79
2024/02/27 04:38:36;;;;;;;9.80;8.03;;;;;;;12.65;48.26;97954.75;6758916;29;20307;-79
2024/02/27 04:41:58;;;;;;;11.57;8.20;;;;;;;12.30;48.57;97969.38;6759219;29;20216;-79
2024/02/27 04:45:19;;;;;;;9.77;7.87;;;;;;;12.71;47.77;97966.47;6759614;29;20899;-79
2024/02/27 04:48:41;;;;;;;12.43;8.43;;;;;;;13.29;46.38;97967.16;6757454;29;20329;-80
2024/02/27 04:52:05;;;;;;;10.63;7.23;;;;;;;12.92;46.88;97977.47;6733434;29;20740;-79
2024/02/27 04:55:29;;;;;;;12.27;8.53;;;;;;;13.04;47.13;97986.41;6733511;29;20292;-79
2024/02/27 04:58:50;;;;;;;9.47;7.60;;;;;;;13.14;46.83;97989.31;6733808;29;20373;-79
2024/02/27 05:02:12;;;;;;;10.23;8.20;;;;;;;12.86;47.22;97974.94;6758954;29;20837;-79
2024/02/27 05:05:36;;;;;;;10.87;8.47;;;;;;;13.29;46.58;97988.81;6758532;29;20259;-79
2024/02/27 05:08:59;;;;;;;8.83;7.57;;;;;;;13.09;46.71;97985.72;6758081;29;20263;-79
2024/02/27 05:12:20;;;;;;;9.10;7.93;;;;;;;12.97;47.21;97991.16;6751165;29;20356;-79
2024/02/27 05:15:42;;;;;;;9.93;8.00;;;;;;;13.38;46.43;98001.69;6752776;29;20355;-79
2024/02/27 05:19:03;;;;;;;10.63;7.97;;;;;;;13.37;46.73;98005.47;6751137;29;20317;-78
2024/02/27 05:22:25;;;;;;;11.73;8.53;;;;;;;13.14;46.00;97978.50;6743813;29;20246;-79
2024/02/27 05:25:47;;;;;;;9.83;8.83;;;;;;;12.87;47.42;98026.06;6758428;29;20392;-79
2024/02/27 05:29:10;;;;;;;10.03;7.73;;;;;;;13.03;47.30;98024.53;6751295;29;20742;-80
2024/02/27 05:32:32;;;;;;;10.87;8.67;;;;;;;13.04;47.01;98018.88;6758460;29;20257;-79
2024/02/27 05:35:53;;;;;;;11.57;9.00;;;;;;;12.70;48.08;98029.75;6757874;29;20337;-80
2024/02/27 05:39:15;;;;;;;12.33;9.03;;;;;;;12.95;47.63;98031.16;6768841;29;20229;-80
2024/02/27 05:42:38;;;;;;;12.00;8.50;;;;;;;13.26;46.81;98024.47;6757330;29;20351;-79
2024/02/27 05:45:59;;;;;;;12.33;8.97;;;;;;;13.14;47.09;98029.09;6758383;29;20295;-79
2024/02/27 05:49:21;;;;;;;10.73;9.23;;;;;;;13.14;47.44;98037.22;6760546;29;20323;-80
2024/02/27 05:52:42;;;;;;;10.30;8.73;;;;;;;13.08;47.07;98043.56;6770192;29;20301;-80
2024/02/27 05:56:04;;;;;;;10.90;8.60;;;;;;;12.58;48.21;98050.56;6757912;29;20298;-79
2024/02/27 05:59:27;;;;;;;11.67;9.20;;;;;;;12.49;48.28;98079.00;6756713;29;20231;-80
2024/02/27 06:02:48;;;;;;;14.47;9.90;;;;;;;13.15;47.16;98060.53;6753273;29;20280;-80
2024/02/27 06:06:12;;;;;;;13.20;9.53;;;;;;;13.35;47.28;98074.47;6749404;29;20728;-81
2024/02/27 06:09:34;;;;;;;13.70;10.17;;;;;;;13.32;46.76;98083.06;6757157;29;20669;-81
2024/02/27 06:12:55;;;;;;;11.63;9.53;;;;;;;13.13;47.16;98044.53;6757053;29;20204;-78
2024/02/27 06:16:18;;;;;;;13.40;9.50;;;;;;;13.28;47.29;98088.13;6756530;29;20315;-79
2024/02/27 06:19:44;;;;;;;11.20;8.93;;;;;;;12.95;48.26;98092.53;6757241;29;20310;-79
2024/02/27 06:23:04;;;;;;;13.30;10.03;;;;;;;13.29;47.64;98095.19;6756189;29;20671;-79
2024/02/27 06:26:26;;;;;;;13.23;9.90;;;;;;;13.37;47.12;98099.41;6755767;29;20714;-79
2024/02/27 06:29:49;;;;;;;13.77;9.93;;;;;;;13.46;47.16;98100.69;6756170;29;20215;-81
2024/02/27 06:33:13;;;;;;;15.93;10.23;;;;;;;13.21;47.70;98095.56;6775730;29;20298;-79
2024/02/27 06:36:37;;;;;;;13.83;10.13;;;;;;;13.24;46.69;98059.06;6755112;29;20276;-78
2024/02/27 06:39:59;;;;;;;16.47;11.83;;;;;;;12.04;48.33;98096.81;6755013;29;20207;-79
2024/02/27 06:43:20;;;;;;;14.00;11.20;;;;;;;12.97;47.69;98122.88;6757605;29;20223;-81
2024/02/27 06:46:42;;;;;;;14.00;11.10;;;;;;;13.22;46.69;98123.47;6758015;29;20387;-81
2024/02/27 06:50:05;;;;;;;15.13;11.73;;;;;;;12.70;47.64;98109.00;6757074;29;20197;-81
2024/02/27 06:53:27;;;;;;;17.53;12.77;;;;;;;12.41;48.83;98128.03;6756868;29;20299;-81
2024/02/27 06:56:49;;;;;;;17.73;12.43;;;;;;;12.19;49.08;98084.53;6756516;29;20255;-82
2024/02/27 07:00:12;;;;;;;17.00;12.60;;;;;;;12.90;47.63;98138.41;6756082;29;20376;-82
2024/02/27 07:03:33;;;;;;;17.37;13.00;;;;;;;13.06;47.24;98135.84;6756374;29;20690;-81
2024/02/27 07:06:56;;;;;;;17.17;11.93;;;;;;;13.28;47.11;98127.94;6755407;29;20266;-81
2024/02/27 07:10:17;;;;;;;15.83;12.23;;;;;;;13.53;46.27;98123.03;6758965;29;20284;-82
2024/02/27 07:13:39;;;;;;;17.17;12.73;;;;;;;13.49;46.66;98116.44;6764930;29;20296;-81
2024/02/27 07:17:00;;;;;;;16.57;12.23;;;;;;;13.46;46.70;98131.28;6764194;29;20450;-81
2024/02/27 07:20:22;;;;;;;14.53;11.77;;;;;;;13.00;48.14;98146.78;6764214;29;20303;-81
2024/02/27 07:23:45;;;;;;;16.67;12.33;;;;;;;12.07;49.82;98131.47;6765438;29;20287;-82
2024/02/27 07:27:06;;;;;;;16.60;12.77;;;;;;;13.01;48.33;98145.72;6767420;29;20366;-82
2024/02/27 07:30:28;;;;;;;17.17;12.50;;;;;;;13.00;48.09;98160.31;6766418;29;20277;-83
2024/02/27 07:33:49;;;;;;;18.30;13.60;;;;;;;13.11;47.81;98154.88;6767295;29;20296;-82
2024/02/27 07:37:12;;;;;;;14.83;12.07;;;;;;;12.99;47.99;98161.38;6741898;29;20696;-83
2024/02/27 07:40:35;;;;;;;20.47;13.80;;;;;;;12.82;48.40;98163.09;6747656;29;20216;-83
2024/02/27 07:43:56;;;;;;;18.93;13.73;;;;;;;13.30;47.51;98139.34;6767348;29;20297;-83
2024/02/27 07:47:18;;;;;;;15.87;12.17;;;;;;;13.18;47.06;98162.88;6767563;29;20357;-83
2024/02/27 07:50:40;;;;;;;19.53;13.30;;;;;;;13.14;47.54;98162.53;6767823;29;20667;-82
2024/02/27 07:54:03;;;;;;;16.77;13.80;;;;;;;13.12;47.33;98172.78;6767785;29;20248;-82
2024/02/27 08:00:54;;;;;;;17.07;12.97;;;;;;;12.40;49.36;98175.84;6760111;29;20588;-80
2024/02/27 08:04:17;;;;;;;15.73;12.40;;;;;;;13.19;48.08;98162.66;6767136;29;20300;-81
2024/02/27 08:07:39;;;;;;;17.40;13.57;;;;;;;12.67;48.90;98171.69;6766879;29;20730;-81
2024/02/27 08:11:02;;;;;;;16.37;12.23;;;;;;;12.55;49.35;98164.59;6765723;29;20212;-81
2024/02/27 08:14:23;;;;;;;18.30;12.73;;;;;;;12.49;49.89;98185.28;6767410;29;20213;-80
2024/02/27 08:17:46;;;;;;;16.47;12.87;;;;;;;12.79;49.13;98180.63;6766348;29;20225;-80
2024/02/27 08:21:08;;;;;;;14.90;11.83;;;;;;;12.95;48.42;98193.50;6764924;29;20314;-80
2024/02/27 08:24:29;;;;;;;18.80;13.63;;;;;;;13.18;48.62;98195.38;6762138;29;20275;-80
2024/02/27 08:27:51;;;;;;;20.03;13.90;;;;;;;13.78;47.79;98193.97;6762194;29;20318;-81
2024/02/27 08:31:12;;;;;;;18.57;14.27;;;;;;;13.94;47.23;98199.47;6762966;29;20209;-80
2024/02/27 08:34:35;;;;;;;16.97;12.07;;;;;;;13.06;47.80;98124.19;6762716;29;20211;-81
2024/02/27 08:37:57;;;;;;;16.00;12.70;;;;;;;13.81;46.62;98172.63;6762362;29;20373;-81
2024/02/27 08:41:20;;;;;;;16.13;12.50;;;;;;;13.97;47.18;98180.00;6764662;29;20339;-81
2024/02/27 08:44:42;;;;;;;18.07;13.27;;;;;;;13.90;47.71;98178.50;6751554;29;20243;-81
2024/02/27 08:48:04;;;;;;;16.93;12.87;;;;;;;13.53;47.80;98166.38;6753287;29;20331;-81
2024/02/27 08:51:26;;;;;;;20.50;13.23;;;;;;;13.64;48.01;98177.16;6762142;29;20217;-81
2024/02/27 08:54:48;;;;;;;16.00;12.20;;;;;;;13.68;47.76;98177.53;6762557;29;20571;-81
2024/02/27 08:58:09;;;;;;;15.17;11.70;;;;;;;13.95;46.94;98162.34;6761960;29;20613;-81
2024/02/27 09:01:33;;;;;;;14.03;11.50;;;;;;;13.80;46.75;98197.28;6761901;29;20672;-81
2024/02/27 09:04:58;;;;;;;15.73;11.80;;;;;;;13.19;47.55;98119.34;6763028;29;20245;-81
2024/02/27 09:08:21;;;;;;;16.60;12.17;;;;;;;14.08;45.63;98211.66;6761578;29;20323;-81
2024/02/27 09:11:43;;;;;;;15.87;11.50;;;;;;;13.13;48.25;98220.44;6762033;29;20592;-80
2024/02/27 09:15:06;;;;;;;13.70;11.17;;;;;;;13.76;47.08;98218.59;6762993;29;20618;-81
2024/02/27 09:18:28;;;;;;;15.00;11.63;;;;;;;12.97;48.83;98206.78;6749348;29;20312;-81
2024/02/27 09:21:49;;;;;;;15.13;11.87;;;;;;;13.28;48.74;98203.72;6762598;29;20308;-81
2024/02/27 09:25:13;;;;;;;13.57;11.03;;;;;;;13.87;48.21;98197.97;6737257;29;20268;-81
2024/02/27 09:28:34;;;;;;;13.70;11.33;;;;;;;13.06;48.46;98073.63;6736201;29;20315;-82
2024/02/27 09:31:56;;;;;;;18.53;12.50;;;;;;;13.38;49.10;98209.34;6736411;29;20275;-81
2024/02/27 09:35:19;;;;;;;16.33;13.57;;;;;;;13.45;50.46;98201.94;6745068;29;20298;-80
2024/02/27 09:38:40;;;;;;;17.93;12.83;;;;;;;13.21;50.90;98205.75;6761641;29;20719;-80
2024/02/27 09:42:15;;;;;;;18.40;13.67;;;;;;;13.50;50.65;98137.03;6762659;29;20268;-80
2024/02/27 09:45:37;;;;;;;16.93;13.27;;;;;;;13.68;50.17;98210.03;6762046;29;20694;-81
2024/02/27 09:49:00;;;;;;;16.47;13.33;;;;;;;14.15;48.57;98206.13;6760873;29;20242;-81
2024/02/27 09:52:24;;;;;;;18.60;13.83;;;;;;;13.57;50.10;98191.91;6761794;29;20299;-79
2024/02/27 09:55:45;;;;;;;16.43;13.37;;;;;;;12.49;53.69;98179.03;6760166;29;20295;-81
2024/02/27 09:59:08;;;;;;;17.90;12.60;;;;;;;13.41;50.42;98206.19;6760562;29;20273;-80
2024/02/27 10:02:30;;;;;;;17.73;11.80;;;;;;;14.16;50.35;98181.44;6761475;29;20216;-81
2024/02/27 10:05:51;;;;;;;17.20;13.37;;;;;;;14.73;48.49;98187.63;6762519;29;20321;-82
2024/02/27 10:09:15;;;;;;;17.87;13.77;;;;;;;14.84;46.46;98197.59;6765728;29;20296;-81
2024/02/27 10:12:36;;;;;;;20.33;14.07;;;;;;;14.44;47.42;98203.16;6761890;29;20623;-81
2024/02/27 10:16:00;;;;;;;19.00;13.83;;;;;;;13.70;50.57;98216.03;6761954;29;20208;-80
2024/02/27 10:19:21;;;;;;;21.10;14.07;;;;;;;14.43;49.06;98198.81;6761338;29;20380;-81
2024/02/27 10:22:43;;;;;;;19.20;14.60;;;;;;;14.40;49.42;98229.13;6760578;29;20313;-80
2024/02/27 10:26:09;;;;;;;16.63;12.60;;;;;;;14.82;48.37;98205.19;6761210;29;20720;-80
2024/02/27 10:29:32;;;;;;;16.37;12.47;;;;;;;15.05;47.60;98227.53;6760995;29;20210;-80
2024/02/27 10:32:55;;;;;;;17.70;13.50;;;;;;;14.41;49.12;98238.91;6761228;29;20243;-80
2024/02/27 10:36:16;;;;;;;16.63;13.77;;;;;;;14.90;47.49;98237.31;6759712;29;20302;-80
2024/02/27 10:39:38;;;;;;;21.10;14.53;;;;;;;14.16;48.16;98240.28;6759720;29;20622;-81
2024/02/27 10:42:59;;;;;;;19.63;14.77;;;;;;;13.70;49.75;98249.34;6761420;29;20252;-81
2024/02/27 10:46:21;;;;;;;17.70;14.00;;;;;;;14.14;49.31;98236.97;6753687;29;20260;-79
2024/02/27 10:49:44;;;;;;;20.17;14.70;;;;;;;13.12;50.98;98231.50;6758789;29;20278;-80
2024/02/27 10:53:05;;;;;;;15.63;13.47;;;;;;;14.66;48.19;98249.38;6760301;29;20300;-80
2024/02/27 10:56:27;;;;;;;15.77;13.30;;;;;;;15.13;47.29;98253.44;6759419;29;20264;-81
2024/02/27 10:59:49;;;;;;;16.73;13.60;;;;;;;15.04;47.00;98246.81;6758843;29;20234;-81
2024/02/27 11:03:13;;;;;;;18.73;13.90;;;;;;;14.77;47.49;98249.34;6760698;29;20215;-81
2024/02/27 11:06:37;;;;;;;19.43;14.53;;;;;;;15.14;46.83;98250.50;6760115;29;20250;-80
2024/02/27 11:09:59;;;;;;;20.50;14.17;;;;;;;14.66;47.16;98235.81;6760791;29;20683;-81
2024/02/27 11:13:21;;;;;;;17.97;14.00;;;;;;;14.18;48.10;98246.28;6762495;29;20234;-79
2024/02/27 11:16:44;;;;;;;16.83;13.97;;;;;;;14.80;47.83;98248.84;6765056;29;20227;-80
2024/02/27 11:20:07;;;;;;;17.33;13.87;;;;;;;14.60;47.11;98210.50;6764150;29;20265;-81
2024/02/27 11:23:30;;;;;;;18.33;12.77;;;;;;;15.25;47.39;98238.72;6762889;29;20214;-80
2024/02/27 11:26:52;;;;;;;17.73;14.57;;;;;;;15.07;47.97;98239.00;6759505;29;20324;-81
2024/02/27 11:30:14;;;;;;;20.40;15.03;;;;;;;15.49;46.34;98240.22;6758329;29;20246;-82
2024/02/27 11:33:43;;;;;;;16.43;14.37;;;;;;;14.74;48.35;98243.59;6759628;29;20214;-80
2024/02/27 11:37:10;;;;;;;21.10;14.93;;;;;;;14.31;49.67;98225.16;6759642;29;20235;-81
2024/02/27 11:40:49;;;;;;;20.97;15.10;;;;;;;14.66;48.57;98239.38;6758316;29;20237;-81
2024/02/27 11:44:10;;;;;;;18.33;14.20;;;;;;;15.26;47.79;98240.38;6758043;29;20276;-81
2024/02/27 11:47:36;;;;;;;19.50;13.93;;;;;;;15.95;45.83;98236.19;6752685;29;20241;-81
2024/02/27 11:50:58;;;;;;;20.87;15.37;;;;;;;15.39;46.41;98193.06;6761320;29;21024;-81
2024/02/27 11:54:33;;;;;;;17.13;14.23;;;;;;;15.97;45.82;98239.47;6757337;29;20230;-81
2024/02/27 11:57:57;;;;;;;19.37;15.23;;;;;;;15.69;45.90;98237.75;6759625;29;20673;-81
2024/02/27 12:01:19;;;;;;;19.83;15.50;;;;;;;15.65;45.93;98235.81;6762212;29;20280;-81
2024/02/27 12:04:44;;;;;;;19.27;15.40;;;;;;;16.52;44.30;98240.19;6764284;29;20692;-81
2024/02/27 12:08:06;;;;;;;18.40;14.50;;;;;;;15.28;45.88;98240.94;6762956;29;20262;-80
2024/02/27 12:11:29;;;;;;;17.30;15.03;;;;;;;15.25;45.65;98241.44;6763583;29;20355;-81
2024/02/27 12:14:52;;;;;;;20.40;16.17;;;;;;;15.66;45.44;98218.41;6763883;29;20283;-81
2024/02/27 12:18:13;;;;;;;19.10;14.73;;;;;;;15.54;44.67;98239.44;6763238;29;20358;-80
2024/02/27 12:21:35;;;;;;;17.23;14.80;;;;;;;14.86;46.86;98238.91;6763241;29;20340;-81
2024/02/27 12:24:58;;;;;;;19.80;14.57;;;;;;;16.29;45.15;98235.78;6762915;29;20210;-81
2024/02/27 12:28:19;;;;;;;20.80;15.93;;;;;;;16.40;44.85;98234.06;6763967;29;20383;-81
2024/02/27 12:31:42;;;;;;;18.30;15.40;;;;;;;16.63;43.94;98225.59;6763728;29;20302;-82
2024/02/27 12:35:04;;;;;;;20.40;14.77;;;;;;;16.33;43.79;98231.50;6768530;29;20472;-82
2024/02/27 12:38:26;;;;;;;22.23;15.73;;;;;;;15.83;44.76;98239.06;6788648;29;20321;-81
2024/02/27 12:41:47;;;;;;;20.33;15.37;;;;;;;14.96;46.91;98234.47;6789166;29;20213;-80
2024/02/27 12:45:11;;;;;;;19.70;15.50;;;;;;;15.36;47.06;98228.88;6789492;29;20696;-81
2024/02/27 12:48:34;;;;;;;18.30;14.80;;;;;;;15.51;45.62;98201.94;6761177;29;20240;-81
2024/02/27 12:51:55;;;;;;;16.97;14.50;;;;;;;15.84;45.11;98210.78;6764024;29;20240;-81
2024/02/27 12:55:19;;;;;;;20.50;15.33;;;;;;;15.88;45.34;98206.50;6763453;29;20692;-81
2024/02/27 12:58:41;;;;;;;19.60;16.37;;;;;;;16.63;43.85;98209.25;6762574;29;20394;-81
2024/02/27 13:02:03;;;;;;;18.97;15.80;;;;;;;16.34;44.11;98207.84;6763203;29;20219;-81
2024/02/27 13:05:26;;;;;;;19.63;16.50;;;;;;;15.24;46.10;98193.63;6762878;29;20317;-81
2024/02/27 13:08:48;;;;;;;21.63;16.03;;;;;;;15.87;45.30;98201.31;6761340;29;20801;-81
2024/02/27 13:12:14;;;;;;;18.63;15.77;;;;;;;15.47;45.97;98192.63;6761937;29;20289;-81
2024/02/27 13:15:35;;;;;;;17.47;14.63;;;;;;;15.55;45.76;98189.47;6762485;29;20199;-81
2024/02/27 13:18:57;;;;;;;20.47;15.37;;;;;;;15.55;45.54;98195.72;6761623;29;20310;-82
2024/02/27 13:22:20;;;;;;;26.67;16.13;;;;;;;15.16;46.33;98193.25;6762814;29;20317;-81
2024/02/27 13:25:43;;;;;;;20.53;15.33;;;;;;;15.24;46.83;98180.06;6762227;29;20257;-82
2024/02/27 13:29:04;;;;;;;20.20;15.70;;;;;;;15.03;46.96;98167.25;6760107;29;20240;-82
2024/02/27 13:32:26;;;;;;;20.47;16.40;;;;;;;15.90;45.54;98179.88;6761064;29;20747;-82
2024/02/27 13:35:47;;;;;;;22.73;17.03;;;;;;;15.99;45.64;98185.69;6760722;29;20270;-80
2024/02/27 13:39:11;;;;;;;22.73;16.27;;;;;;;16.27;44.99;98189.00;6762275;29;20289;-82
2024/02/27 13:42:32;;;;;;;22.73;16.73;;;;;;;15.72;45.57;98191.06;6761082;29;20222;-82
2024/02/27 13:45:55;;;;;;;20.53;16.47;;;;;;;15.26;46.62;98193.38;6761715;29;20229;-81
2024/02/27 13:49:20;;;;;;;22.00;17.50;;;;;;;15.51;46.40;98188.34;6761036;29;20320;-81
2024/02/27 13:52:42;;;;;;;22.33;16.23;;;;;;;15.62;46.49;98190.94;6762167;29;20399;-82
2024/02/27 13:56:06;;;;;;;22.00;16.27;;;;;;;16.38;44.54;98179.88;6762241;29;20228;-82
2024/02/27 13:59:28;;;;;;;20.07;16.77;;;;;;;16.71;44.10;98171.50;6761894;29;20255;-83
2024/02/27 14:02:49;;;;;;;18.77;15.17;;;;;;;16.65;43.48;98180.72;6753745;29;20689;-82
2024/02/27 14:06:11;;;;;;;22.10;15.70;;;;;;;16.46;44.53;98173.16;6760473;29;20329;-83
2024/02/27 14:09:32;;;;;;;20.40;16.50;;;;;;;15.65;45.68;98174.13;6760324;29;20589;-82
2024/02/27 14:12:55;;;;;;;22.33;16.03;;;;;;;16.09;45.36;98180.34;6759035;29;20258;-82
2024/02/27 14:16:17;;;;;;;21.63;16.90;;;;;;;15.66;45.43;98135.00;6760517;29;20230;-82
2024/02/27 14:19:39;;;;;;;22.43;15.83;;;;;;;16.23;44.77;98170.72;6761407;29;20677;-82
2024/02/27 14:23:00;;;;;;;20.57;15.10;;;;;;;15.46;45.93;98183.63;6760314;29;20214;-83
2024/02/27 14:26:24;;;;;;;23.47;16.27;;;;;;;15.99;45.67;98181.06;6759918;29;20229;-82
2024/02/27 14:29:47;;;;;;;21.30;15.37;;;;;;;16.04;45.54;98188.47;6746526;29;20357;-83
2024/02/27 14:33:08;;;;;;;21.73;15.63;;;;;;;16.47;43.98;98177.53;6757490;29;20230;-82
2024/02/27 14:36:30;;;;;;;17.93;14.43;;;;;;;15.50;45.24;98189.41;6758720;29;20245;-83
2024/02/27 14:39:51;;;;;;;18.07;14.97;;;;;;;14.78;46.54;98123.44;6758333;29;20296;-82
2024/02/27 14:43:13;;;;;;;19.63;14.87;;;;;;;14.57;47.17;98202.84;6751589;29;20682;-83
2024/02/27 14:46:36;;;;;;;17.80;13.87;;;;;;;15.01;46.92;98218.25;6757778;29;20236;-83
2024/02/27 14:49:58;;;;;;;19.23;13.87;;;;;;;15.08;46.25;98218.06;6758698;29;20219;-81
2024/02/27 14:53:19;;;;;;;17.87;13.73;;;;;;;15.47;45.12;98201.63;6758183;29;20267;-84
2024/02/27 14:56:41;;;;;;;15.40;13.07;;;;;;;16.10;43.60;98223.59;6757641;29;20318;-83
2024/02/27 15:00:05;;;;;;;18.53;13.70;;;;;;;15.71;44.33;98232.91;6756975;29;21038;-82
2024/02/27 15:03:27;;;;;;;17.70;13.33;;;;;;;15.23;46.01;98232.69;6755081;29;20211;-83
2024/02/27 15:06:49;;;;;;;17.37;13.67;;;;;;;15.85;44.58;98231.47;6752134;29;20320;-83
2024/02/27 15:10:10;;;;;;;16.37;12.47;;;;;;;16.29;43.89;98237.72;6756841;29;20243;-82
2024/02/27 15:13:33;;;;;;;18.33;12.93;;;;;;;16.42;43.59;98242.78;6753801;29;20292;-81
2024/02/27 15:16:54;;;;;;;17.50;13.40;;;;;;;16.11;44.31;98257.06;6761215;29;20258;-82
2024/02/27 15:20:17;;;;;;;21.70;14.70;;;;;;;16.33;44.40;98261.41;6757240;29;20242;-81
2024/02/27 15:23:39;;;;;;;20.47;13.87;;;;;;;16.21;44.77;98271.63;6757562;29;20258;-82
2024/02/27 15:27:00;;;;;;;19.20;15.10;;;;;;;15.89;45.13;98284.25;6756414;29;20653;-82
2024/02/27 15:30:22;;;;;;;19.90;15.60;;;;;;;15.63;46.15;98274.09;6756922;29;20297;-83
2024/02/27 15:33:44;;;;;;;19.67;14.53;;;;;;;15.43;47.13;98284.66;6761151;29;20206;-82
2024/02/27 15:37:07;;;;;;;20.37;15.30;;;;;;;15.47;46.44;98295.88;6762000;29;20288;-83
2024/02/27 15:40:29;;;;;;;21.37;16.10;;;;;;;15.82;45.96;98272.72;6761974;29;20217;-82